Latest Weather Observations for Bellambi

IDN60901

Issued at 8:41 pm EST Wednesday 23 May 2018 (issued every 10 minutes, with the page automatically refreshed every 10 minutes)

About weather observations | Map of Sydney area stations | Latest observations for Sydney area | Other Formats
Station Details ID: 068228 Name: BELLAMBI AWS Lat: -34.37 Lon: 150.93 Height: 10.0 m
Data from the previous 72 hours. | See also: Recent months at Bellambi
Date/Time
EST
Temp
°C
App
Temp
°C
Dew
Point
°C
Rel
Hum
%
Delta-T
°C
Wind Press
QNH
hPa
Press
MSL
hPa
Rain since
9am
mm
Dir  Spd
km/h
Gust
km/h
Spd
kts
Gust
kts
23/08:30pm 13.9 12.5 10.9 82 1.6 NW 9 11 5 6 - - 0.0
23/08:00pm 13.6 12.6 10.4 81 1.7 NW 6 9 3 5 - - 0.0
23/07:30pm 13.9 12.8 10.5 80 1.8 NW 7 9 4 5 - - 0.0
23/07:00pm 14.4 13.4 11.0 80 1.8 NW 7 9 4 5 - - 0.0
23/06:30pm 14.5 13.0 10.5 77 2.1 NW 9 11 5 6 - - 0.0
23/06:00pm 14.9 13.9 10.3 74 2.4 WNW 6 7 3 4 - - 0.0
23/05:30pm 15.6 14.5 10.6 72 2.6 NW 7 9 4 5 - - 0.0
23/05:00pm 16.5 15.2 11.2 71 2.9 NNW 9 13 5 7 - - 0.0
23/04:30pm 17.3 15.3 11.6 69 3.1 NNE 13 17 7 9 - - 0.0
23/04:00pm 17.7 15.7 11.5 67 3.4 NE 13 15 7 8 - - 0.0
23/03:30pm 18.1 16.1 11.4 65 3.7 NE 13 17 7 9 - - 0.0
23/03:00pm 18.7 16.8 11.8 64 3.8 NE 13 17 7 9 - - 0.0
23/02:30pm 18.6 16.8 10.7 60 4.3 NE 11 15 6 8 - - 0.0
23/02:00pm 19.1 17.8 11.2 60 4.3 ENE 9 11 5 6 - - 0.0
23/01:30pm 19.1 17.4 11.2 60 4.3 ENE 11 15 6 8 - - 0.0
23/01:00pm 19.2 17.0 10.7 58 4.6 E 13 15 7 8 - - 0.0
23/12:30pm 19.0 17.0 10.3 57 4.7 ESE 11 13 6 7 - - 0.0
23/12:00pm 19.4 18.0 10.9 58 4.6 E 9 11 5 6 - - 0.0
23/11:30am 19.4 17.9 10.7 57 4.7 ESE 9 11 5 6 - - 0.0
23/11:00am 19.1 17.7 10.9 59 4.5 SE 9 11 5 6 - - 0.0
23/10:30am 18.7 17.0 9.8 56 4.7 SSE 9 13 5 7 - - 0.0
23/10:00am 18.6 16.5 9.7 56 4.7 S 11 13 6 7 - - 0.0
23/09:30am 18.1 16.2 9.2 56 4.7 S 9 11 5 6 - - 0.0
23/09:00am 17.1 16.6 9.3 60 4.1 WSW 2 7 1 4 - - 0.0
23/08:30am 16.4 15.4 10.3 67 3.2 WSW 6 9 3 5 - - 0.0
23/08:00am 15.3 14.4 9.4 68 3.0 WSW 4 7 2 4 - - 0.0
23/07:30am 14.6 12.7 9.2 70 2.8 WNW 9 13 5 7 - - 0.0
23/07:00am 14.1 12.2 9.1 72 2.5 WNW 9 11 5 6 - - 0.0
23/06:30am 13.9 11.6 8.9 72 2.5 W 11 13 6 7 - - 0.0
23/06:00am 13.6 11.6 8.7 72 2.5 WNW 9 11 5 6 - - 0.0
23/05:30am 13.7 11.6 8.3 70 2.7 W 9 11 5 6 - - 0.0
23/05:00am 13.5 11.4 8.1 70 2.7 W 9 11 5 6 - - 0.0
23/04:30am 13.9 12.3 8.7 71 2.6 WNW 7 9 4 5 - - 0.0
23/04:00am 13.6 11.4 7.8 68 2.9 W 9 11 5 6 - - 0.0
23/03:30am 13.6 11.5 8.2 70 2.7 WNW 9 13 5 7 - - 0.0
23/03:00am 13.9 11.3 7.7 66 3.1 W 11 13 6 7 - - 0.0
23/02:30am 14.4 12.2 7.9 65 3.2 W 9 13 5 7 - - 0.0
23/02:00am 14.9 12.7 7.7 62 3.6 WNW 9 11 5 6 - - 0.0
23/01:30am 15.8 14.2 8.8 63 3.6 SSW 7 9 4 5 - - 0.0
23/01:00am 16.6 14.7 9.1 61 3.9 SW 9 13 5 7 - - 0.0
23/12:30am 17.0 15.3 8.2 56 4.5 SSW 7 11 4 6 - - 0.0
23/12:00am 17.1 13.8 8.0 55 4.6 WSW 15 22 8 12 - - 0.0
 
Date/Time
EST
Temp
°C
App
Temp
°C
Dew
Point
°C
Rel
Hum
%
Delta-T
°C
Wind Press
QNH
hPa
Press
MSL
hPa
Rain since
9am
mm
Dir  Spd
km/h
Gust
km/h
Spd
kts
Gust
kts
22/11:30pm 16.7 13.7 7.9 56 4.4 WSW 13 17 7 9 - - 0.0
22/11:00pm 16.5 12.7 7.7 56 4.4 WSW 17 22 9 12 - - 0.0
22/10:30pm 16.4 12.7 7.9 57 4.3 WSW 17 22 9 12 - - 0.0
22/10:00pm 16.4 13.0 7.6 56 4.4 WSW 15 20 8 11 - - 0.0
22/09:30pm 16.8 14.1 7.4 54 4.7 W 11 19 6 10 - - 0.0
22/09:00pm 17.2 13.0 7.5 53 4.9 WSW 19 28 10 15 - - 0.0
22/08:30pm 17.5 13.1 7.5 52 5.0 W 20 32 11 17 - - 0.0
22/08:00pm 17.6 13.2 7.4 51 5.1 WSW 20 28 11 15 - - 0.0
22/07:30pm 17.6 14.1 7.4 51 5.1 WSW 15 24 8 13 - - 0.0
22/07:00pm 17.6 14.1 7.4 51 5.1 WSW 15 24 8 13 - - 0.0
22/06:30pm 18.1 13.8 7.2 49 5.5 W 19 32 10 17 - - 0.0
22/06:00pm 18.7 14.3 7.2 47 5.8 W 20 32 11 17 - - 0.0
22/05:30pm 19.0 15.1 7.1 46 6.0 W 17 24 9 13 - - 0.0
22/05:00pm 19.4 15.9 7.2 45 6.2 W 15 20 8 11 - - 0.0
22/04:30pm 20.5 16.5 6.8 41 6.9 W 17 28 9 15 - - 0.0
22/04:00pm 21.3 17.0 6.8 39 7.4 W 19 28 10 15 - - 0.0
22/03:30pm 21.9 17.3 6.6 37 7.8 W 20 32 11 17 - - 0.0
22/03:00pm 22.1 18.1 6.7 37 7.9 W 17 28 9 15 - - 0.0
22/02:30pm 22.2 17.6 5.6 34 8.3 W 19 26 10 14 - - 0.0
22/02:00pm 22.4 17.8 5.8 34 8.4 WSW 19 28 10 15 - - 0.0
22/01:30pm 22.7 18.6 6.0 34 8.5 WSW 17 24 9 13 - - 0.0
22/01:00pm 22.5 18.0 6.3 35 8.2 W 19 28 10 15 - - 0.0
22/12:30pm 22.4 17.7 6.2 35 8.2 W 20 30 11 16 - - 0.0
22/12:00pm 22.3 17.6 6.1 35 8.2 SW 20 32 11 17 - - 0.0
22/11:30am 21.9 17.3 5.8 35 8.1 WSW 19 30 10 16 - - 0.0
22/11:00am 21.7 17.2 6.0 36 7.9 W 19 28 10 15 - - 0.0
22/10:30am 20.8 16.1 5.2 36 7.7 WSW 19 30 10 16 - - 0.0
22/10:00am 19.9 15.0 5.2 38 7.2 W 20 28 11 15 - - 0.0
22/09:30am 19.2 14.9 5.3 40 6.8 W 17 26 9 14 - - 0.0
22/09:00am 18.2 13.9 5.4 43 6.2 W 17 22 9 12 - - -
22/08:30am 17.3 12.6 5.3 45 5.8 W 19 30 10 16 - - -
22/08:00am 16.4 11.6 5.4 48 5.3 W 20 32 11 17 - - -
22/07:30am 15.8 10.5 5.1 49 5.1 WSW 22 33 12 18 - - -
22/07:00am 14.9 10.9 5.1 52 4.6 W 15 24 8 13 - - -
22/06:30am 14.4 9.2 5.7 56 4.1 WNW 22 33 12 18 - - -
22/06:00am 14.7 9.4 5.2 53 4.5 WNW 22 35 12 19 - - -
22/05:30am 14.7 10.3 5.0 52 4.5 W 17 30 9 16 - - -
22/05:00am 15.0 8.6 5.0 51 4.7 W 28 41 15 22 - - -
22/04:30am 14.8 8.4 5.1 52 4.6 WSW 28 37 15 20 - - -
22/04:00am 14.4 9.1 5.2 54 4.3 W 22 37 12 20 - - -
22/03:30am 14.7 9.1 5.2 53 4.5 WSW 24 37 13 20 - - -
22/03:00am 14.7 10.0 5.0 52 4.5 W 19 33 10 18 - - 0.0
22/02:30am 14.5 8.8 4.8 52 4.5 W 24 37 13 20 - - -
22/02:00am 14.6 9.2 4.3 50 4.8 W 22 33 12 18 - - -
22/01:30am 14.6 8.0 4.3 50 4.8 WSW 28 44 15 24 - - -
22/01:00am 14.5 8.7 4.5 51 4.6 W 24 37 13 20 - - -
22/12:35am 14.8 8.3 4.5 50 4.8 W 28 46 15 25 - - -
22/12:30am 14.6 8.8 4.3 50 4.8 W 24 39 13 21 - - -
22/12:00am 14.5 9.4 4.2 50 4.7 SW 20 32 11 17 - - -
 
Date/Time
EST
Temp
°C
App
Temp
°C
Dew
Point
°C
Rel
Hum
%
Delta-T
°C
Wind Press
QNH
hPa
Press
MSL
hPa
Rain since
9am
mm
Dir  Spd
km/h
Gust
km/h
Spd
kts
Gust
kts
21/11:33pm 14.9 8.3 4.3 49 4.9 W 28 46 15 25 - - -
21/11:30pm 14.9 8.3 4.3 49 4.9 W 28 44 15 24 - - -
21/11:00pm 15.2 8.7 4.6 49 4.9 W 28 48 15 26 - - -
21/10:39pm 15.3 8.7 4.4 48 5.1 W 28 46 15 25 - - -
21/10:30pm 15.3 9.1 4.4 48 5.1 W 26 44 14 24 - - -
21/10:06pm 15.6 9.0 4.3 47 5.3 W 28 46 15 25 - - -
21/10:00pm 15.6 9.4 4.3 47 5.3 W 26 41 14 22 - - -
21/09:30pm 15.6 10.2 4.3 47 5.3 W 22 39 12 21 - - -
21/09:00pm 15.9 9.7 4.3 46 5.4 W 26 43 14 23 - - 0.0
21/08:30pm 16.1 9.6 4.5 46 5.4 W 28 50 15 27 - - -
21/08:00pm 16.3 9.4 4.4 45 5.6 W 30 54 16 29 - - -
21/07:35pm 16.2 9.7 4.9 47 5.3 W 28 48 15 26 - - -
21/07:30pm 16.2 10.1 4.6 46 5.5 W 26 48 14 26 - - -
21/07:00pm 16.3 10.1 4.4 45 5.6 W 26 41 14 22 - - -
21/06:34pm 16.5 10.0 4.5 45 5.6 W 28 50 15 27 - - -
21/06:30pm 16.4 10.2 4.4 45 5.6 W 26 41 14 22 - - -
21/06:13pm 16.6 10.0 4.3 44 5.8 W 28 46 15 25 - - -
21/06:00pm 16.6 10.8 4.3 44 5.8 W 24 37 13 20 - - -
21/05:30pm 16.9 10.7 4.3 43 5.9 W 26 39 14 21 - - -
21/05:19pm 17.2 10.7 4.5 43 6.0 W 28 46 15 25 - - -
21/05:00pm 17.4 10.4 4.0 41 6.3 W 30 43 16 23 - - -
21/04:44pm 17.8 10.7 3.7 39 6.6 W 30 50 16 27 - - -
21/04:30pm 18.4 12.2 4.2 39 6.7 W 26 46 14 25 - - -
21/04:14pm 18.7 11.9 3.3 36 7.2 W 28 54 15 29 - - -
21/04:00pm 19.2 12.9 3.8 36 7.3 W 26 43 14 23 - - -
21/03:30pm 20.1 14.9 3.8 34 7.8 W 20 32 11 17 - - -
21/03:00pm 20.6 14.7 3.8 33 8.0 W 24 43 13 23 - - 0.0
21/02:30pm 20.8 15.2 3.5 32 8.2 W 22 37 12 20 - - -
21/02:00pm 21.4 17.0 4.9 34 8.1 W 17 28 9 15 - - -
21/01:30pm 21.1 15.6 3.8 32 8.3 WSW 22 37 12 20 - - -
21/01:00pm 21.3 15.5 4.4 33 8.2 WSW 24 41 13 22 - - -
21/12:30pm 21.0 15.5 4.1 33 8.2 WSW 22 35 12 19 - - -
21/12:00pm 20.8 15.4 4.4 34 7.9 W 22 - 12 - - - -
21/11:00am 20.3 14.9 4.4 35 7.7 W 22 - 12 - - - -
21/10:00am 19.5 14.6 5.2 39 7.0 W 20 32 11 17 - - 0.0
21/09:36am 18.9 12.5 5.4 41 6.6 W 28 46 15 25 - - 0.0
21/09:30am 18.9 13.0 5.7 42 6.5 W 26 46 14 25 - - 0.0
21/09:20am 18.6 12.3 5.8 43 6.3 W 28 50 15 27 - - 0.0
21/09:00am 18.1 13.1 6.3 46 5.8 WSW 22 33 12 18 - - 0.0
21/08:30am 17.3 11.9 6.5 49 5.3 WSW 24 41 13 22 - - 0.0
21/08:00am 16.9 10.8 6.4 50 5.2 W 28 44 15 24 - - 0.0
21/07:30am 16.4 10.3 6.5 52 4.8 W 28 43 15 23 - - 0.0
21/07:00am 15.9 10.1 6.3 53 4.7 W 26 43 14 23 - - 0.0
21/06:30am 15.5 11.1 6.5 55 4.4 WSW 19 33 10 18 - - 0.0
21/06:00am 15.6 11.1 6.9 56 4.3 WSW 20 32 11 17 - - 0.0
21/05:30am 15.8 10.5 6.8 55 4.4 W 24 43 13 23 - - 0.0
21/05:00am 15.8 10.9 6.8 55 4.4 W 22 37 12 20 - - 0.0
21/04:30am 15.5 10.2 6.8 56 4.3 WSW 24 41 13 22 - - 0.0
21/04:00am 15.4 10.1 6.7 56 4.2 WSW 24 37 13 20 - - 0.0
21/03:30am 15.1 9.4 6.7 57 4.1 W 26 37 14 20 - - 0.0
21/03:00am 14.6 10.1 6.2 57 4.0 WSW 19 33 10 18 - - 0.0
21/02:30am 14.3 9.2 5.9 57 4.0 SW 22 30 12 16 - - 0.0
21/02:00am 14.4 9.6 5.7 56 4.1 SW 20 37 11 20 - - 0.0
21/01:30am 14.1 9.2 5.2 55 4.2 SW 20 30 11 16 - - 0.0
21/01:00am 14.3 9.4 4.9 53 4.4 WSW 20 32 11 17 - - 0.0
21/12:30am 14.1 10.0 4.1 51 4.6 WSW 15 26 8 14 - - 0.0
21/12:00am 14.2 9.6 3.9 50 4.7 WSW 17 28 9 15 - - 0.0
 
Date/Time
EST
Temp
°C
App
Temp
°C
Dew
Point
°C
Rel
Hum
%
Delta-T
°C
Wind Press
QNH
hPa
Press
MSL
hPa
Rain since
9am
mm
Dir  Spd
km/h
Gust
km/h
Spd
kts
Gust
kts
20/11:30pm 13.7 9.5 3.8 51 4.5 SW 15 20 8 11 - - 0.0
20/11:00pm 13.8 10.4 3.9 51 4.5 WSW 11 17 6 9 - - 0.0
20/10:30pm 14.0 9.1 4.0 51 4.6 WSW 19 24 10 13 - - 0.0
20/10:00pm 14.0 9.1 4.3 52 4.5 WSW 19 28 10 15 - - 0.0
20/09:30pm 14.3 9.4 4.3 51 4.6 WSW 19 28 10 15 - - 0.0
20/09:00pm 14.2 9.2 4.5 52 4.5 WSW 20 33 11 18 - - 0.0

Latest Capital City Observations: Canberra | Sydney | Melbourne | Brisbane | Adelaide | Perth | Hobart | Darwin

Other Formats:

Comma delimited format used in spreadsheet applications
http://www.bom.gov.au/fwo/IDN60901/IDN60901.94749.axf

JavaScript Object Notation format (JSON) in row-major order
http://www.bom.gov.au/fwo/IDN60901/IDN60901.94749.json